sensor_id;sensor_type;location;lat;lon;timestamp;temperature;humidity
59703;DHT22;45570;48.782;8.332;2024-03-23T00:51:41;11.90;99.90
59703;DHT22;45570;48.782;8.332;2024-03-23T00:54:08;12.00;99.90
59703;DHT22;45570;48.782;8.332;2024-03-23T00:56:35;11.90;99.90
59703;DHT22;45570;48.782;8.332;2024-03-23T00:59:02;11.90;99.90
59703;DHT22;45570;48.782;8.332;2024-03-23T01:01:29;11.90;99.90
59703;DHT22;45570;48.782;8.332;2024-03-23T01:03:57;11.90;99.90
59703;DHT22;45570;48.782;8.332;2024-03-23T01:06:23;12.00;99.90
59703;DHT22;45570;48.782;8.332;2024-03-23T01:08:52;11.90;99.90
59703;DHT22;45570;48.782;8.332;2024-03-23T01:11:19;12.10;99.90
59703;DHT22;45570;48.782;8.332;2024-03-23T01:13:46;12.20;99.90
59703;DHT22;45570;48.782;8.332;2024-03-23T01:16:13;12.30;99.90
59703;DHT22;45570;48.782;8.332;2024-03-23T01:18:40;12.20;99.90
59703;DHT22;45570;48.782;8.332;2024-03-23T01:21:07;12.20;99.90
59703;DHT22;45570;48.782;8.332;2024-03-23T01:23:34;12.10;99.90
59703;DHT22;45570;48.782;8.332;2024-03-23T01:26:03;12.00;99.90
59703;DHT22;45570;48.782;8.332;2024-03-23T01:28:30;11.90;99.90
59703;DHT22;45570;48.782;8.332;2024-03-23T01:30:57;11.80;99.90
59703;DHT22;45570;48.782;8.332;2024-03-23T01:33:24;11.70;99.90
59703;DHT22;45570;48.782;8.332;2024-03-23T01:35:51;11.50;99.90
59703;DHT22;45570;48.782;8.332;2024-03-23T01:38:19;11.30;99.90
59703;DHT22;45570;48.782;8.332;2024-03-23T01:40:45;11.30;99.90
59703;DHT22;45570;48.782;8.332;2024-03-23T01:43:14;11.40;99.90
59703;DHT22;45570;48.782;8.332;2024-03-23T01:45:41;11.40;99.90
59703;DHT22;45570;48.782;8.332;2024-03-23T01:48:09;11.40;99.90
59703;DHT22;45570;48.782;8.332;2024-03-23T01:50:38;11.20;99.90
59703;DHT22;45570;48.782;8.332;2024-03-23T01:53:06;11.20;99.90
59703;DHT22;45570;48.782;8.332;2024-03-23T01:55:32;11.40;99.90
59703;DHT22;45570;48.782;8.332;2024-03-23T01:58:00;12.10;99.90
59703;DHT22;45570;48.782;8.332;2024-03-23T02:00:28;12.70;99.90
59703;DHT22;45570;48.782;8.332;2024-03-23T02:02:56;13.30;99.90
59703;DHT22;45570;48.782;8.332;2024-03-23T02:05:23;13.60;99.90
59703;DHT22;45570;48.782;8.332;2024-03-23T02:07:50;14.10;99.90
59703;DHT22;45570;48.782;8.332;2024-03-23T03:41:40;14.00;99.90
59703;DHT22;45570;48.782;8.332;2024-03-23T03:44:07;14.00;99.90
59703;DHT22;45570;48.782;8.332;2024-03-23T03:46:34;13.70;99.90
59703;DHT22;45570;48.782;8.332;2024-03-23T03:49:01;13.40;99.90
59703;DHT22;45570;48.782;8.332;2024-03-23T03:51:28;13.10;99.90
59703;DHT22;45570;48.782;8.332;2024-03-23T03:53:56;12.90;99.90
59703;DHT22;45570;48.782;8.332;2024-03-23T03:56:22;12.70;99.90
59703;DHT22;45570;48.782;8.332;2024-03-23T03:58:51;12.70;99.90
59703;DHT22;45570;48.782;8.332;2024-03-23T04:01:18;12.50;99.90
59703;DHT22;45570;48.782;8.332;2024-03-23T04:03:46;12.50;99.90
59703;DHT22;45570;48.782;8.332;2024-03-23T04:06:18;12.40;99.90
59703;DHT22;45570;48.782;8.332;2024-03-23T04:08:45;12.30;99.90
59703;DHT22;45570;48.782;8.332;2024-03-23T04:11:12;12.20;99.90
59703;DHT22;45570;48.782;8.332;2024-03-23T04:13:40;12.20;99.90
59703;DHT22;45570;48.782;8.332;2024-03-23T04:16:09;12.10;99.90
59703;DHT22;45570;48.782;8.332;2024-03-23T04:18:36;12.00;99.90
59703;DHT22;45570;48.782;8.332;2024-03-23T04:21:03;12.10;99.90
59703;DHT22;45570;48.782;8.332;2024-03-23T04:23:31;12.10;99.90
59703;DHT22;45570;48.782;8.332;2024-03-23T04:26:02;12.00;99.90
59703;DHT22;45570;48.782;8.332;2024-03-23T04:28:29;11.90;99.90
59703;DHT22;45570;48.782;8.332;2024-03-23T04:30:56;11.80;99.90
59703;DHT22;45570;48.782;8.332;2024-03-23T04:33:25;11.70;99.90
59703;DHT22;45570;48.782;8.332;2024-03-23T04:35:52;11.60;99.90
59703;DHT22;45570;48.782;8.332;2024-03-23T04:38:20;11.50;99.90
59703;DHT22;45570;48.782;8.332;2024-03-23T04:40:53;11.40;99.90
59703;DHT22;45570;48.782;8.332;2024-03-23T04:43:21;11.40;99.90
59703;DHT22;45570;48.782;8.332;2024-03-23T04:45:48;11.30;99.90
59703;DHT22;45570;48.782;8.332;2024-03-23T04:48:16;11.30;99.90
59703;DHT22;45570;48.782;8.332;2024-03-23T04:50:45;11.20;99.90
59703;DHT22;45570;48.782;8.332;2024-03-23T04:53:13;11.20;99.90
59703;DHT22;45570;48.782;8.332;2024-03-23T04:55:42;11.10;99.90
59703;DHT22;45570;48.782;8.332;2024-03-23T04:58:09;11.00;99.90
59703;DHT22;45570;48.782;8.332;2024-03-23T05:00:36;11.00;99.90
59703;DHT22;45570;48.782;8.332;2024-03-23T05:03:04;11.00;99.90
59703;DHT22;45570;48.782;8.332;2024-03-23T05:05:31;10.90;99.90
59703;DHT22;45570;48.782;8.332;2024-03-23T05:08:00;10.80;99.90
59703;DHT22;45570;48.782;8.332;2024-03-23T05:10:27;10.80;99.90
59703;DHT22;45570;48.782;8.332;2024-03-23T05:12:55;10.70;99.90
59703;DHT22;45570;48.782;8.332;2024-03-23T05:15:22;10.70;99.90
59703;DHT22;45570;48.782;8.332;2024-03-23T05:17:50;10.50;99.90
59703;DHT22;45570;48.782;8.332;2024-03-23T05:20:16;10.50;99.90
59703;DHT22;45570;48.782;8.332;2024-03-23T05:22:45;10.40;99.90
59703;DHT22;45570;48.782;8.332;2024-03-23T05:25:13;10.30;99.90
59703;DHT22;45570;48.782;8.332;2024-03-23T05:27:42;10.20;99.90
59703;DHT22;45570;48.782;8.332;2024-03-23T05:30:08;10.20;99.90
59703;DHT22;45570;48.782;8.332;2024-03-23T05:32:36;10.10;99.90
59703;DHT22;45570;48.782;8.332;2024-03-23T05:35:06;10.00;99.90
59703;DHT22;45570;48.782;8.332;2024-03-23T05:41:11;9.70;99.90
59703;DHT22;45570;48.782;8.332;2024-03-23T05:43:44;9.70;99.90
59703;DHT22;45570;48.782;8.332;2024-03-23T05:46:11;9.70;99.90
59703;DHT22;45570;48.782;8.332;2024-03-23T05:48:39;9.70;99.90
59703;DHT22;45570;48.782;8.332;2024-03-23T05:51:05;9.60;99.90
59703;DHT22;45570;48.782;8.332;2024-03-23T05:53:34;9.50;99.90
59703;DHT22;45570;48.782;8.332;2024-03-23T05:56:01;9.50;99.90
59703;DHT22;45570;48.782;8.332;2024-03-23T05:58:32;9.50;99.90
59703;DHT22;45570;48.782;8.332;2024-03-23T06:00:59;9.40;99.90
59703;DHT22;45570;48.782;8.332;2024-03-23T06:03:27;9.40;99.90
59703;DHT22;45570;48.782;8.332;2024-03-23T06:05:54;9.40;99.90
59703;DHT22;45570;48.782;8.332;2024-03-23T06:08:21;9.40;99.90
59703;DHT22;45570;48.782;8.332;2024-03-23T06:10:48;9.40;99.90
59703;DHT22;45570;48.782;8.332;2024-03-23T06:13:16;9.50;99.90
59703;DHT22;45570;48.782;8.332;2024-03-23T06:15:45;9.40;99.90
59703;DHT22;45570;48.782;8.332;2024-03-23T06:18:12;9.50;99.90
59703;DHT22;45570;48.782;8.332;2024-03-23T06:24:13;9.40;99.90
59703;DHT22;45570;48.782;8.332;2024-03-23T06:26:42;9.30;99.90
59703;DHT22;45570;48.782;8.332;2024-03-23T06:29:09;9.30;99.90
59703;DHT22;45570;48.782;8.332;2024-03-23T06:31:38;9.10;99.90
59703;DHT22;45570;48.782;8.332;2024-03-23T06:34:05;9.10;99.90
59703;DHT22;45570;48.782;8.332;2024-03-23T06:36:33;9.10;99.90
59703;DHT22;45570;48.782;8.332;2024-03-23T06:42:05;8.90;99.90
59703;DHT22;45570;48.782;8.332;2024-03-23T06:44:31;9.10;99.90
59703;DHT22;45570;48.782;8.332;2024-03-23T06:47:00;9.00;99.90
59703;DHT22;45570;48.782;8.332;2024-03-23T06:49:27;9.00;99.90
59703;DHT22;45570;48.782;8.332;2024-03-23T06:51:54;9.00;99.90
59703;DHT22;45570;48.782;8.332;2024-03-23T06:54:21;9.00;99.90
59703;DHT22;45570;48.782;8.332;2024-03-23T06:56:48;8.90;99.90
59703;DHT22;45570;48.782;8.332;2024-03-23T06:59:15;9.00;99.90
59703;DHT22;45570;48.782;8.332;2024-03-23T07:01:42;9.00;99.90
59703;DHT22;45570;48.782;8.332;2024-03-23T07:04:10;9.10;99.90
59703;DHT22;45570;48.782;8.332;2024-03-23T07:06:42;9.10;99.90
59703;DHT22;45570;48.782;8.332;2024-03-23T07:09:09;9.00;99.90
59703;DHT22;45570;48.782;8.332;2024-03-23T07:11:36;8.90;99.90
59703;DHT22;45570;48.782;8.332;2024-03-23T07:14:03;8.80;99.90
59703;DHT22;45570;48.782;8.332;2024-03-23T07:16:31;8.80;99.90
59703;DHT22;45570;48.782;8.332;2024-03-23T07:18:57;8.80;99.90
59703;DHT22;45570;48.782;8.332;2024-03-23T07:21:27;8.80;99.90
59703;DHT22;45570;48.782;8.332;2024-03-23T07:23:53;8.80;99.90
59703;DHT22;45570;48.782;8.332;2024-03-23T07:26:21;8.80;99.90
59703;DHT22;45570;48.782;8.332;2024-03-23T07:28:47;8.80;99.90
59703;DHT22;45570;48.782;8.332;2024-03-23T07:31:15;8.70;99.90
59703;DHT22;45570;48.782;8.332;2024-03-23T07:33:42;8.80;99.90
59703;DHT22;45570;48.782;8.332;2024-03-23T07:36:09;8.80;99.90
59703;DHT22;45570;48.782;8.332;2024-03-23T07:38:39;8.70;99.90
59703;DHT22;45570;48.782;8.332;2024-03-23T07:41:08;8.80;99.90
59703;DHT22;45570;48.782;8.332;2024-03-23T07:43:35;8.90;99.90
59703;DHT22;45570;48.782;8.332;2024-03-23T07:46:02;8.90;99.90
59703;DHT22;45570;48.782;8.332;2024-03-23T07:48:29;8.90;99.90
59703;DHT22;45570;48.782;8.332;2024-03-23T07:50:58;8.80;99.90
59703;DHT22;45570;48.782;8.332;2024-03-23T07:53:26;8.80;99.90
59703;DHT22;45570;48.782;8.332;2024-03-23T07:55:56;8.80;99.90
59703;DHT22;45570;48.782;8.332;2024-03-23T07:58:23;8.80;99.90
59703;DHT22;45570;48.782;8.332;2024-03-23T08:00:51;8.80;99.90
59703;DHT22;45570;48.782;8.332;2024-03-23T08:03:17;8.80;99.90
59703;DHT22;45570;48.782;8.332;2024-03-23T08:05:45;8.80;99.90
59703;DHT22;45570;48.782;8.332;2024-03-23T08:08:11;8.90;99.90
59703;DHT22;45570;48.782;8.332;2024-03-23T08:10:47;8.90;99.90
59703;DHT22;45570;48.782;8.332;2024-03-23T08:13:15;8.90;99.90
59703;DHT22;45570;48.782;8.332;2024-03-23T08:15:42;9.00;99.90
59703;DHT22;45570;48.782;8.332;2024-03-23T08:18:09;8.90;99.90
59703;DHT22;45570;48.782;8.332;2024-03-23T08:20:37;9.00;99.90
59703;DHT22;45570;48.782;8.332;2024-03-23T08:23:04;9.10;99.90
59703;DHT22;45570;48.782;8.332;2024-03-23T08:25:32;9.30;99.90
59703;DHT22;45570;48.782;8.332;2024-03-23T08:27:59;9.60;99.90
59703;DHT22;45570;48.782;8.332;2024-03-23T08:30:28;9.80;99.90
59703;DHT22;45570;48.782;8.332;2024-03-23T08:32:55;9.90;99.90
59703;DHT22;45570;48.782;8.332;2024-03-23T08:35:23;9.90;99.90
59703;DHT22;45570;48.782;8.332;2024-03-23T08:37:50;9.90;99.90
59703;DHT22;45570;48.782;8.332;2024-03-23T08:40:17;9.80;99.90
59703;DHT22;45570;48.782;8.332;2024-03-23T08:42:44;9.70;99.90
59703;DHT22;45570;48.782;8.332;2024-03-23T08:45:16;9.90;99.90
59703;DHT22;45570;48.782;8.332;2024-03-23T08:47:46;10.10;99.90
59703;DHT22;45570;48.782;8.332;2024-03-23T08:50:17;10.40;99.90
59703;DHT22;45570;48.782;8.332;2024-03-23T08:52:46;10.40;99.90
59703;DHT22;45570;48.782;8.332;2024-03-23T08:55:26;10.30;99.90
59703;DHT22;45570;48.782;8.332;2024-03-23T08:57:55;10.20;99.90
59703;DHT22;45570;48.782;8.332;2024-03-23T09:00:24;9.90;99.90
59703;DHT22;45570;48.782;8.332;2024-03-23T09:02:55;9.80;99.90
59703;DHT22;45570;48.782;8.332;2024-03-23T09:05:27;9.90;99.90
59703;DHT22;45570;48.782;8.332;2024-03-23T09:07:58;10.50;99.90
59703;DHT22;45570;48.782;8.332;2024-03-23T09:10:25;11.20;99.90
59703;DHT22;45570;48.782;8.332;2024-03-23T09:16:24;12.20;99.90
59703;DHT22;45570;48.782;8.332;2024-03-23T09:18:58;12.70;99.90
59703;DHT22;45570;48.782;8.332;2024-03-23T09:21:30;13.00;99.90
59703;DHT22;45570;48.782;8.332;2024-03-23T09:24:08;12.90;99.90
59703;DHT22;45570;48.782;8.332;2024-03-23T09:26:39;12.80;99.90
59703;DHT22;45570;48.782;8.332;2024-03-23T09:29:10;12.80;99.90
59703;DHT22;45570;48.782;8.332;2024-03-23T09:31:43;12.90;99.90
59703;DHT22;45570;48.782;8.332;2024-03-23T09:34:28;12.80;99.90
59703;DHT22;45570;48.782;8.332;2024-03-23T09:36:59;12.40;99.90
59703;DHT22;45570;48.782;8.332;2024-03-23T09:39:26;12.20;99.90
59703;DHT22;45570;48.782;8.332;2024-03-23T09:41:56;12.00;99.90
59703;DHT22;45570;48.782;8.332;2024-03-23T09:44:24;11.90;99.90
59703;DHT22;45570;48.782;8.332;2024-03-23T09:46:52;11.50;99.90
59703;DHT22;45570;48.782;8.332;2024-03-23T09:49:20;11.30;99.90
59703;DHT22;45570;48.782;8.332;2024-03-23T09:51:48;11.10;99.90
59703;DHT22;45570;48.782;8.332;2024-03-23T09:54:17;10.90;99.90
59703;DHT22;45570;48.782;8.332;2024-03-23T09:56:43;10.50;99.90
59703;DHT22;45570;48.782;8.332;2024-03-23T10:02:45;9.60;99.90
59703;DHT22;45570;48.782;8.332;2024-03-23T10:05:21;7.90;99.90
59703;DHT22;45570;48.782;8.332;2024-03-23T10:07:56;7.10;99.90
59703;DHT22;45570;48.782;8.332;2024-03-23T10:10:29;6.80;99.90
59703;DHT22;45570;48.782;8.332;2024-03-23T10:12:57;6.70;99.90
59703;DHT22;45570;48.782;8.332;2024-03-23T10:15:26;6.60;99.90
59703;DHT22;45570;48.782;8.332;2024-03-23T10:17:56;6.50;99.90
59703;DHT22;45570;48.782;8.332;2024-03-23T10:20:28;6.60;99.90
59703;DHT22;45570;48.782;8.332;2024-03-23T10:23:09;6.70;99.90
59703;DHT22;45570;48.782;8.332;2024-03-23T10:26:14;7.00;99.90
59703;DHT22;45570;48.782;8.332;2024-03-23T10:31:34;7.20;99.90
59703;DHT22;45570;48.782;8.332;2024-03-23T10:34:06;7.40;99.90
59703;DHT22;45570;48.782;8.332;2024-03-23T10:36:41;7.70;99.90
59703;DHT22;45570;48.782;8.332;2024-03-23T10:39:12;8.10;99.90
59703;DHT22;45570;48.782;8.332;2024-03-23T10:41:45;8.60;99.90
59703;DHT22;45570;48.782;8.332;2024-03-23T10:44:12;8.90;99.90
59703;DHT22;45570;48.782;8.332;2024-03-23T10:46:43;9.40;99.90
59703;DHT22;45570;48.782;8.332;2024-03-23T10:49:10;9.60;99.90
59703;DHT22;45570;48.782;8.332;2024-03-23T10:55:13;9.90;99.90
59703;DHT22;45570;48.782;8.332;2024-03-23T10:57:48;9.90;99.90
59703;DHT22;45570;48.782;8.332;2024-03-23T11:00:19;10.00;99.90
59703;DHT22;45570;48.782;8.332;2024-03-23T11:22:42;9.00;99.90
59703;DHT22;45570;48.782;8.332;2024-03-23T11:25:13;9.00;99.90
59703;DHT22;45570;48.782;8.332;2024-03-23T11:27:45;9.00;99.90
59703;DHT22;45570;48.782;8.332;2024-03-23T11:30:21;9.10;99.90
59703;DHT22;45570;48.782;8.332;2024-03-23T11:32:51;9.60;99.90
59703;DHT22;45570;48.782;8.332;2024-03-23T11:55:25;9.40;99.90
59703;DHT22;45570;48.782;8.332;2024-03-23T11:57:52;9.30;99.90
59703;DHT22;45570;48.782;8.332;2024-03-23T12:00:20;9.20;99.90
59703;DHT22;45570;48.782;8.332;2024-03-23T12:02:48;9.10;99.90
59703;DHT22;45570;48.782;8.332;2024-03-23T12:05:17;9.00;99.90
59703;DHT22;45570;48.782;8.332;2024-03-23T12:07:52;9.40;99.90
59703;DHT22;45570;48.782;8.332;2024-03-23T12:10:24;9.80;99.90
59703;DHT22;45570;48.782;8.332;2024-03-23T12:13:04;10.00;99.90
59703;DHT22;45570;48.782;8.332;2024-03-23T12:15:36;10.50;99.90
59703;DHT22;45570;48.782;8.332;2024-03-23T12:18:09;10.40;99.90
59703;DHT22;45570;48.782;8.332;2024-03-23T12:20:42;10.40;99.90
59703;DHT22;45570;48.782;8.332;2024-03-23T13:20:21;9.00;99.90
59703;DHT22;45570;48.782;8.332;2024-03-23T13:22:49;8.90;99.90
59703;DHT22;45570;48.782;8.332;2024-03-23T13:25:18;8.80;99.90
59703;DHT22;45570;48.782;8.332;2024-03-23T13:27:48;8.60;99.90
59703;DHT22;45570;48.782;8.332;2024-03-23T13:30:24;8.60;99.90
59703;DHT22;45570;48.782;8.332;2024-03-23T13:33:44;8.50;99.90
59703;DHT22;45570;48.782;8.332;2024-03-23T13:40:00;8.20;99.90
59703;DHT22;45570;48.782;8.332;2024-03-23T13:43:02;8.00;99.90
59703;DHT22;45570;48.782;8.332;2024-03-23T13:46:10;7.80;99.90
59703;DHT22;45570;48.782;8.332;2024-03-23T13:49:07;7.90;99.90
59703;DHT22;45570;48.782;8.332;2024-03-23T13:54:21;8.10;99.90
59703;DHT22;45570;48.782;8.332;2024-03-23T13:56:50;8.10;99.90
59703;DHT22;45570;48.782;8.332;2024-03-23T13:59:17;8.20;99.90
59703;DHT22;45570;48.782;8.332;2024-03-23T14:01:44;8.20;99.90
59703;DHT22;45570;48.782;8.332;2024-03-23T14:08:04;8.20;99.90
59703;DHT22;45570;48.782;8.332;2024-03-23T14:10:41;8.10;99.90
59703;DHT22;45570;48.782;8.332;2024-03-23T14:17:12;8.00;99.90
59703;DHT22;45570;48.782;8.332;2024-03-23T14:20:05;7.90;99.90
59703;DHT22;45570;48.782;8.332;2024-03-23T14:22:42;7.80;99.90
59703;DHT22;45570;48.782;8.332;2024-03-23T14:25:22;7.90;99.90
59703;DHT22;45570;48.782;8.332;2024-03-23T14:28:29;8.20;99.90
59703;DHT22;45570;48.782;8.332;2024-03-23T14:31:05;8.70;99.90
59703;DHT22;45570;48.782;8.332;2024-03-23T14:33:38;8.80;99.90
59703;DHT22;45570;48.782;8.332;2024-03-23T14:36:13;9.10;99.90
59703;DHT22;45570;48.782;8.332;2024-03-23T14:38:39;9.70;99.90
59703;DHT22;45570;48.782;8.332;2024-03-23T14:41:07;9.80;99.90
59703;DHT22;45570;48.782;8.332;2024-03-23T14:43:34;9.80;99.90
59703;DHT22;45570;48.782;8.332;2024-03-23T14:46:08;9.80;99.90
59703;DHT22;45570;48.782;8.332;2024-03-23T14:48:35;9.70;99.90
59703;DHT22;45570;48.782;8.332;2024-03-23T14:51:05;9.40;99.90
59703;DHT22;45570;48.782;8.332;2024-03-23T14:53:32;9.10;99.90
59703;DHT22;45570;48.782;8.332;2024-03-23T14:56:00;9.00;99.90
59703;DHT22;45570;48.782;8.332;2024-03-23T14:58:28;8.80;99.90
59703;DHT22;45570;48.782;8.332;2024-03-23T15:01:00;8.70;99.90
59703;DHT22;45570;48.782;8.332;2024-03-23T15:03:27;8.60;99.90
59703;DHT22;45570;48.782;8.332;2024-03-23T15:05:54;8.70;99.90
59703;DHT22;45570;48.782;8.332;2024-03-23T15:08:23;8.80;99.90
59703;DHT22;45570;48.782;8.332;2024-03-23T15:10:50;9.00;99.90
59703;DHT22;45570;48.782;8.332;2024-03-23T15:13:17;9.10;99.90
59703;DHT22;45570;48.782;8.332;2024-03-23T15:18:57;9.40;99.90
59703;DHT22;45570;48.782;8.332;2024-03-23T15:21:35;9.30;99.90
59703;DHT22;45570;48.782;8.332;2024-03-23T15:24:10;9.20;99.90
59703;DHT22;45570;48.782;8.332;2024-03-23T15:26:46;9.10;99.90
59703;DHT22;45570;48.782;8.332;2024-03-23T15:29:26;9.00;99.90
59703;DHT22;45570;48.782;8.332;2024-03-23T15:32:19;8.90;99.90
59703;DHT22;45570;48.782;8.332;2024-03-23T15:34:51;9.00;99.90
59703;DHT22;45570;48.782;8.332;2024-03-23T15:37:28;8.80;99.90
59703;DHT22;45570;48.782;8.332;2024-03-23T15:39:58;8.80;99.90
59703;DHT22;45570;48.782;8.332;2024-03-23T15:42:26;8.70;99.90
59703;DHT22;45570;48.782;8.332;2024-03-23T15:44:52;8.70;99.90
59703;DHT22;45570;48.782;8.332;2024-03-23T15:47:20;8.70;99.90
59703;DHT22;45570;48.782;8.332;2024-03-23T15:49:47;8.50;99.90
59703;DHT22;45570;48.782;8.332;2024-03-23T15:52:14;8.50;99.90
59703;DHT22;45570;48.782;8.332;2024-03-23T15:54:43;8.30;99.90
59703;DHT22;45570;48.782;8.332;2024-03-23T15:57:12;8.40;99.90
59703;DHT22;45570;48.782;8.332;2024-03-23T15:59:39;8.60;99.90
59703;DHT22;45570;48.782;8.332;2024-03-23T16:02:07;8.70;99.90
59703;DHT22;45570;48.782;8.332;2024-03-23T16:04:33;8.70;99.90
59703;DHT22;45570;48.782;8.332;2024-03-23T16:07:02;8.70;99.90
59703;DHT22;45570;48.782;8.332;2024-03-23T16:09:29;8.70;99.90
59703;DHT22;45570;48.782;8.332;2024-03-23T16:11:56;8.60;99.90
59703;DHT22;45570;48.782;8.332;2024-03-23T16:14:24;8.60;99.90
59703;DHT22;45570;48.782;8.332;2024-03-23T16:16:51;8.50;99.90
59703;DHT22;45570;48.782;8.332;2024-03-23T16:19:18;8.50;99.90
59703;DHT22;45570;48.782;8.332;2024-03-23T16:21:47;8.40;99.90
59703;DHT22;45570;48.782;8.332;2024-03-23T16:24:13;8.40;99.90
59703;DHT22;45570;48.782;8.332;2024-03-23T16:26:41;8.30;99.90
59703;DHT22;45570;48.782;8.332;2024-03-23T16:29:07;8.20;99.90
59703;DHT22;45570;48.782;8.332;2024-03-23T16:31:37;8.10;99.90
59703;DHT22;45570;48.782;8.332;2024-03-23T16:34:04;8.00;99.90
59703;DHT22;45570;48.782;8.332;2024-03-23T16:36:31;8.10;99.90
59703;DHT22;45570;48.782;8.332;2024-03-23T16:38:58;8.00;99.90
59703;DHT22;45570;48.782;8.332;2024-03-23T16:41:25;8.00;99.90
59703;DHT22;45570;48.782;8.332;2024-03-23T16:43:53;7.90;99.90
59703;DHT22;45570;48.782;8.332;2024-03-23T16:46:20;7.90;99.90
59703;DHT22;45570;48.782;8.332;2024-03-23T16:48:48;7.60;99.90
59703;DHT22;45570;48.782;8.332;2024-03-23T16:51:16;6.90;99.90
59703;DHT22;45570;48.782;8.332;2024-03-23T16:53:52;6.10;99.90
59703;DHT22;45570;48.782;8.332;2024-03-23T16:56:22;5.50;99.90
59703;DHT22;45570;48.782;8.332;2024-03-23T16:58:55;5.00;99.90
59703;DHT22;45570;48.782;8.332;2024-03-23T17:01:29;4.80;99.90
59703;DHT22;45570;48.782;8.332;2024-03-23T17:04:08;4.80;99.90
59703;DHT22;45570;48.782;8.332;2024-03-23T17:06:40;4.80;99.90
59703;DHT22;45570;48.782;8.332;2024-03-23T17:09:11;4.80;99.90
59703;DHT22;45570;48.782;8.332;2024-03-23T17:11:57;4.80;99.90
59703;DHT22;45570;48.782;8.332;2024-03-23T17:14:35;4.90;99.90
59703;DHT22;45570;48.782;8.332;2024-03-23T17:17:11;4.90;99.90
59703;DHT22;45570;48.782;8.332;2024-03-23T17:19:42;4.80;99.90
59703;DHT22;45570;48.782;8.332;2024-03-23T17:25:18;4.80;99.90
59703;DHT22;45570;48.782;8.332;2024-03-23T17:27:54;4.80;99.90
59703;DHT22;45570;48.782;8.332;2024-03-23T17:30:21;4.80;99.90
59703;DHT22;45570;48.782;8.332;2024-03-23T17:32:48;4.90;99.90
59703;DHT22;45570;48.782;8.332;2024-03-23T17:35:29;4.90;99.90
59703;DHT22;45570;48.782;8.332;2024-03-23T17:37:57;4.90;99.90
59703;DHT22;45570;48.782;8.332;2024-03-23T17:40:23;4.90;99.90
59703;DHT22;45570;48.782;8.332;2024-03-23T17:42:51;4.90;99.90
59703;DHT22;45570;48.782;8.332;2024-03-23T17:45:20;4.90;99.90
59703;DHT22;45570;48.782;8.332;2024-03-23T17:48:00;4.90;99.90
59703;DHT22;45570;48.782;8.332;2024-03-23T17:50:35;4.90;99.90
59703;DHT22;45570;48.782;8.332;2024-03-23T17:53:08;5.00;99.90
59703;DHT22;45570;48.782;8.332;2024-03-23T17:55:45;5.00;99.90
59703;DHT22;45570;48.782;8.332;2024-03-23T17:58:30;5.00;99.90
59703;DHT22;45570;48.782;8.332;2024-03-23T18:01:08;5.10;99.90
59703;DHT22;45570;48.782;8.332;2024-03-23T18:03:43;5.20;99.90
59703;DHT22;45570;48.782;8.332;2024-03-23T18:06:22;5.10;99.90
59703;DHT22;45570;48.782;8.332;2024-03-23T18:08:56;5.20;99.90
59703;DHT22;45570;48.782;8.332;2024-03-23T18:11:37;5.20;99.90
59703;DHT22;45570;48.782;8.332;2024-03-23T18:14:31;5.20;99.90
59703;DHT22;45570;48.782;8.332;2024-03-23T18:17:06;5.10;99.90
59703;DHT22;45570;48.782;8.332;2024-03-23T18:19:40;5.10;99.90
59703;DHT22;45570;48.782;8.332;2024-03-23T18:22:15;5.10;99.90
59703;DHT22;45570;48.782;8.332;2024-03-23T18:24:56;5.10;99.90
59703;DHT22;45570;48.782;8.332;2024-03-23T18:27:30;5.10;99.90
59703;DHT22;45570;48.782;8.332;2024-03-23T18:29:58;5.20;99.90
59703;DHT22;45570;48.782;8.332;2024-03-23T18:32:25;5.20;99.90
59703;DHT22;45570;48.782;8.332;2024-03-23T18:34:57;5.10;99.90
59703;DHT22;45570;48.782;8.332;2024-03-23T18:37:25;5.30;99.90
59703;DHT22;45570;48.782;8.332;2024-03-23T18:39:53;5.40;99.90
59703;DHT22;45570;48.782;8.332;2024-03-23T18:42:20;5.30;99.90
59703;DHT22;45570;48.782;8.332;2024-03-23T18:44:47;5.40;99.90
59703;DHT22;45570;48.782;8.332;2024-03-23T18:47:14;5.40;99.90
59703;DHT22;45570;48.782;8.332;2024-03-23T18:49:42;5.30;99.90
59703;DHT22;45570;48.782;8.332;2024-03-23T18:52:13;5.30;99.90
59703;DHT22;45570;48.782;8.332;2024-03-23T18:54:47;5.20;99.90
59703;DHT22;45570;48.782;8.332;2024-03-23T18:57:17;5.30;99.90
59703;DHT22;45570;48.782;8.332;2024-03-23T18:59:44;5.10;99.90
59703;DHT22;45570;48.782;8.332;2024-03-23T19:02:13;5.00;99.90
59703;DHT22;45570;48.782;8.332;2024-03-23T19:04:40;4.90;99.90
59703;DHT22;45570;48.782;8.332;2024-03-23T19:07:07;4.90;99.90
59703;DHT22;45570;48.782;8.332;2024-03-23T19:09:38;4.90;99.90
59703;DHT22;45570;48.782;8.332;2024-03-23T19:12:06;4.90;99.90
59703;DHT22;45570;48.782;8.332;2024-03-23T19:14:48;4.80;99.90
59703;DHT22;45570;48.782;8.332;2024-03-23T19:17:26;4.90;99.90
59703;DHT22;45570;48.782;8.332;2024-03-23T19:19:54;4.80;99.90
59703;DHT22;45570;48.782;8.332;2024-03-23T19:22:21;4.70;99.90
59703;DHT22;45570;48.782;8.332;2024-03-23T19:24:48;4.70;99.90
59703;DHT22;45570;48.782;8.332;2024-03-23T19:27:16;4.70;99.90
59703;DHT22;45570;48.782;8.332;2024-03-23T19:32:42;4.70;99.90
59703;DHT22;45570;48.782;8.332;2024-03-23T19:35:28;4.70;99.90
59703;DHT22;45570;48.782;8.332;2024-03-23T19:38:03;4.70;99.90
59703;DHT22;45570;48.782;8.332;2024-03-23T19:40:31;4.60;99.90
59703;DHT22;45570;48.782;8.332;2024-03-23T19:42:59;4.60;99.90
59703;DHT22;45570;48.782;8.332;2024-03-23T19:45:27;4.70;99.90
59703;DHT22;45570;48.782;8.332;2024-03-23T19:47:55;4.60;99.90
59703;DHT22;45570;48.782;8.332;2024-03-23T19:50:31;4.70;99.90
59703;DHT22;45570;48.782;8.332;2024-03-23T19:53:18;4.70;99.90
59703;DHT22;45570;48.782;8.332;2024-03-23T19:55:55;4.70;99.90
59703;DHT22;45570;48.782;8.332;2024-03-23T19:58:42;4.70;99.90
59703;DHT22;45570;48.782;8.332;2024-03-23T20:01:24;4.70;99.90
59703;DHT22;45570;48.782;8.332;2024-03-23T20:03:58;4.80;99.90
59703;DHT22;45570;48.782;8.332;2024-03-23T20:06:25;4.90;99.90
59703;DHT22;45570;48.782;8.332;2024-03-23T20:09:09;5.00;99.90
59703;DHT22;45570;48.782;8.332;2024-03-23T20:15:04;5.10;99.90
59703;DHT22;45570;48.782;8.332;2024-03-23T20:17:40;5.10;99.90
59703;DHT22;45570;48.782;8.332;2024-03-23T20:20:19;5.00;99.90
59703;DHT22;45570;48.782;8.332;2024-03-23T20:23:24;4.90;99.90
59703;DHT22;45570;48.782;8.332;2024-03-23T20:25:59;4.90;99.90
59703;DHT22;45570;48.782;8.332;2024-03-23T20:28:37;4.90;99.90
59703;DHT22;45570;48.782;8.332;2024-03-23T20:31:15;4.90;99.90
59703;DHT22;45570;48.782;8.332;2024-03-23T20:33:50;4.90;99.90
59703;DHT22;45570;48.782;8.332;2024-03-23T20:36:27;4.90;99.90
59703;DHT22;45570;48.782;8.332;2024-03-23T20:38:58;4.80;99.90
59703;DHT22;45570;48.782;8.332;2024-03-23T20:41:31;4.80;99.90
59703;DHT22;45570;48.782;8.332;2024-03-23T20:44:01;4.90;99.90
59703;DHT22;45570;48.782;8.332;2024-03-23T20:46:41;5.00;99.90
59703;DHT22;45570;48.782;8.332;2024-03-23T20:49:21;5.10;99.90
59703;DHT22;45570;48.782;8.332;2024-03-23T20:51:55;5.10;99.90
59703;DHT22;45570;48.782;8.332;2024-03-23T20:54:28;5.00;99.90